createdAt,value
2019-02-28T00:00:13.790Z,91.50
2019-02-28T00:02:45.818Z,91.50
2019-02-28T00:05:17.822Z,91.30
2019-02-28T00:07:50.544Z,91.40
2019-02-28T00:10:22.529Z,91.60
2019-02-28T00:12:54.420Z,91.20
2019-02-28T00:15:29.688Z,91.70
2019-02-28T00:17:59.988Z,92.00
2019-02-28T00:20:32.640Z,92.20
2019-02-28T00:23:04.690Z,92.10
2019-02-28T00:25:38.084Z,92.30
2019-02-28T00:28:10.311Z,91.90
2019-02-28T00:30:42.255Z,91.80
2019-02-28T00:33:14.193Z,90.90
2019-02-28T00:35:46.123Z,91.30
2019-02-28T00:38:18.056Z,91.50
2019-02-28T00:40:49.994Z,91.80
2019-02-28T00:43:22.338Z,91.70
2019-02-28T00:45:55.585Z,92.20
2019-02-28T00:48:27.476Z,91.90
2019-02-28T00:50:59.422Z,92.10
2019-02-28T00:53:31.352Z,92.10
2019-02-28T00:56:03.287Z,92.00
2019-02-28T00:58:35.222Z,91.80
2019-02-28T01:01:08.465Z,91.70
2019-02-28T01:03:41.053Z,91.60
2019-02-28T01:06:13.001Z,91.90
2019-02-28T01:08:44.935Z,91.90
2019-02-28T01:11:17.253Z,91.80
2019-02-28T01:13:49.231Z,92.00
2019-02-28T01:16:21.171Z,92.10
2019-02-28T01:18:53.105Z,91.60
2019-02-28T01:21:25.032Z,92.20
2019-02-28T01:23:56.973Z,92.40
2019-02-28T01:26:30.519Z,92.40
2019-02-28T01:29:02.766Z,92.70
2019-02-28T01:31:34.758Z,92.70
2019-02-28T01:34:06.895Z,92.90
2019-02-28T01:36:38.839Z,92.70
2019-02-28T01:39:11.174Z,92.80
2019-02-28T01:41:45.172Z,92.60
2019-02-28T01:44:16.757Z,92.80
2019-02-28T01:46:49.306Z,92.50
2019-02-28T01:49:21.300Z,92.90
2019-02-28T01:51:53.234Z,93.10
2019-02-28T01:54:27.784Z,92.90
2019-02-28T01:56:59.052Z,93.10
2019-02-28T01:59:30.999Z,93.40
2019-02-28T02:02:06.687Z,93.90
2019-02-28T02:04:36.665Z,93.70
2019-02-28T02:07:09.036Z,93.60
2019-02-28T02:09:42.727Z,93.50
2019-02-28T02:12:14.691Z,93.40
2019-02-28T02:14:46.732Z,93.20
2019-02-28T02:17:18.773Z,93.10
2019-02-28T02:19:52.208Z,92.70
2019-02-28T02:22:24.372Z,92.80
2019-02-28T02:24:59.332Z,93.40
2019-02-28T02:27:30.039Z,93.00
2019-02-28T02:30:01.976Z,93.00
2019-02-28T02:32:38.739Z,92.70
2019-02-28T02:35:08.497Z,93.20
2019-02-28T02:37:40.554Z,93.50
2019-02-28T02:40:13.053Z,93.80
2019-02-28T02:42:48.928Z,93.60
2019-02-28T02:45:18.853Z,94.00
2019-02-28T02:47:51.030Z,94.30
2019-02-28T02:50:22.994Z,94.90
2019-02-28T02:52:54.970Z,94.30
2019-02-28T02:55:28.926Z,93.90
2019-02-28T02:58:00.531Z,93.70
2019-02-28T03:00:32.448Z,93.40
2019-02-28T03:03:05.995Z,92.90
2019-02-28T03:05:38.117Z,91.90
2019-02-28T03:08:10.140Z,91.40
2019-02-28T03:10:42.078Z,91.60
2019-02-28T03:13:14.015Z,91.90
2019-02-28T03:15:45.954Z,92.50
2019-02-28T03:18:20.486Z,93.40
2019-02-28T03:20:51.559Z,93.90
2019-02-28T03:23:24.579Z,94.70
2019-02-28T03:25:56.530Z,95.00
2019-02-28T03:28:32.162Z,95.10
2019-02-28T03:31:11.693Z,94.70
2019-02-28T03:33:35.740Z,94.10
2019-02-28T03:36:07.676Z,92.60
2019-02-28T03:38:39.614Z,91.80
2019-02-28T03:41:16.085Z,91.60
2019-02-28T03:43:45.200Z,92.10
2019-02-28T03:46:17.148Z,92.70
2019-02-28T03:48:49.091Z,92.90
2019-02-28T03:51:21.026Z,93.00
2019-02-28T03:53:55.946Z,93.20
2019-02-28T03:56:28.430Z,93.20
2019-02-28T03:59:00.458Z,92.70
2019-02-28T04:01:32.415Z,93.10
2019-02-28T04:04:10.838Z,93.40
2019-02-28T04:06:40.993Z,93.80
2019-02-28T04:09:13.039Z,94.20
2019-02-28T04:11:44.948Z,94.10
2019-02-28T04:14:16.993Z,94.20
2019-02-28T04:16:52.700Z,94.60
2019-02-28T04:19:23.148Z,94.20
2019-02-28T04:21:55.113Z,94.50
2019-02-28T04:24:27.045Z,95.20
2019-02-28T04:27:06.499Z,95.00
2019-02-28T04:29:32.617Z,95.00
2019-02-28T04:32:04.792Z,95.20
2019-02-28T04:34:36.719Z,95.10
2019-02-28T04:37:09.756Z,94.90
2019-02-28T04:39:41.755Z,94.80
2019-02-28T04:42:13.682Z,94.90
2019-02-28T04:44:45.614Z,94.80
2019-02-28T04:47:17.551Z,94.80
2019-02-28T04:49:49.504Z,94.80
2019-02-28T04:52:21.412Z,94.70
2019-02-28T04:54:53.450Z,94.40
2019-02-28T04:57:25.384Z,93.70
2019-02-28T04:59:57.305Z,93.30
2019-02-28T05:02:29.236Z,93.50
2019-02-28T05:05:01.171Z,93.90
2019-02-28T05:07:33.108Z,94.40
2019-02-28T05:10:05.415Z,94.60
2019-02-28T05:12:39.985Z,94.30
2019-02-28T05:15:11.412Z,94.20
2019-02-28T05:17:43.381Z,94.40
2019-02-28T05:20:15.684Z,94.40
2019-02-28T05:22:47.614Z,94.90
2019-02-28T05:25:19.650Z,95.10
2019-02-28T05:27:51.574Z,94.70
2019-02-28T05:30:23.517Z,94.70
2019-02-28T05:32:55.446Z,95.30
2019-02-28T05:35:27.468Z,95.50
2019-02-28T05:37:59.406Z,95.20
2019-02-28T05:40:31.332Z,95.10
2019-02-28T05:43:03.273Z,95.20
2019-02-28T05:45:35.307Z,95.40
2019-02-28T05:48:07.250Z,95.50
2019-02-28T05:50:39.297Z,95.60
2019-02-28T05:53:11.192Z,95.50
2019-02-28T05:55:43.122Z,95.20
2019-02-28T05:58:17.648Z,95.50
2019-02-28T06:00:48.693Z,95.70
2019-02-28T06:03:20.627Z,96.20
2019-02-28T06:05:52.570Z,96.10
2019-02-28T06:08:24.498Z,95.90
2019-02-28T06:11:00.632Z,95.80
2019-02-28T06:13:30.066Z,95.50
2019-02-28T06:16:02.052Z,95.40
2019-02-28T06:18:33.992Z,95.40
2019-02-28T06:21:05.927Z,95.30
2019-02-28T06:23:40.711Z,94.30
2019-02-28T06:26:11.514Z,93.90
2019-02-28T06:28:43.433Z,93.40
2019-02-28T06:31:15.369Z,92.90
2019-02-28T06:33:47.541Z,93.10
2019-02-28T06:36:19.501Z,92.70
2019-02-28T06:38:54.444Z,93.60
2019-02-28T06:41:25.052Z,94.20
2019-02-28T06:43:56.985Z,94.40
2019-02-28T06:46:28.923Z,94.20
2019-02-28T06:49:05.978Z,94.00
2019-02-28T06:51:34.495Z,94.10
2019-02-28T06:54:07.994Z,94.10
2019-02-28T06:56:40.158Z,94.30
2019-02-28T06:59:12.098Z,94.10
2019-02-28T07:01:45.026Z,94.20
2019-02-28T07:04:16.969Z,93.90
2019-02-28T07:06:48.921Z,93.90
2019-02-28T07:09:20.856Z,94.10
2019-02-28T07:11:54.892Z,94.10
2019-02-28T07:14:26.433Z,93.80
2019-02-28T07:16:58.406Z,93.50
2019-02-28T07:19:30.330Z,93.20
2019-02-28T07:22:02.272Z,93.20
2019-02-28T07:24:37.273Z,93.50
2019-02-28T07:27:08.102Z,93.60
2019-02-28T07:29:42.652Z,93.20
2019-02-28T07:32:13.664Z,93.10
2019-02-28T07:34:45.606Z,92.70
2019-02-28T07:37:19.002Z,92.40
2019-02-28T07:39:51.182Z,89.90
2019-02-28T07:42:23.230Z,77.60
2019-02-28T07:44:57.872Z,69.50
2019-02-28T07:47:29.095Z,68.20
2019-02-28T07:50:01.111Z,71.10
2019-02-28T07:52:33.773Z,71.50
2019-02-28T07:55:06.858Z,74.40
2019-02-28T07:57:38.798Z,76.70
2019-02-28T08:00:18.216Z,78.10
2019-02-28T08:02:49.730Z,79.20
2019-02-28T08:05:21.907Z,79.20
2019-02-28T08:07:53.991Z,79.80
2019-02-28T08:10:26.012Z,80.20
2019-02-28T08:12:58.132Z,79.40
2019-02-28T08:15:30.300Z,79.60
2019-02-28T08:18:02.470Z,79.60
2019-02-28T08:20:34.881Z,79.20
2019-02-28T08:23:07.030Z,79.10
2019-02-28T08:25:39.621Z,78.80
2019-02-28T08:28:12.824Z,76.90
2019-02-28T08:30:44.857Z,75.10
2019-02-28T08:33:17.185Z,73.50
2019-02-28T08:35:49.288Z,62.20
2019-02-28T08:38:21.308Z,57.10
2019-02-28T08:40:53.340Z,58.00
2019-02-28T08:43:27.410Z,58.40
2019-02-28T08:45:59.186Z,59.90
2019-02-28T08:48:32.413Z,59.60
2019-02-28T08:51:04.891Z,58.50
2019-02-28T08:53:37.077Z,45.50
2019-02-28T08:56:11.013Z,35.20
2019-02-28T08:58:42.883Z,28.70
2019-02-28T09:01:14.888Z,25.30
2019-02-28T09:03:46.993Z,23.50
2019-02-28T09:06:19.074Z,22.10
2019-02-28T09:08:51.102Z,21.00
2019-02-28T09:11:23.200Z,20.50
2019-02-28T09:13:55.214Z,19.80
2019-02-28T09:16:27.695Z,19.50
2019-02-28T09:19:00.884Z,19.60
2019-02-28T09:21:33.756Z,19.30
2019-02-28T09:24:06.093Z,19.10
2019-02-28T09:26:38.193Z,18.50
2019-02-28T09:29:10.322Z,18.40
2019-02-28T09:31:42.412Z,19.20
2019-02-28T09:34:14.428Z,18.80
2019-02-28T09:36:46.444Z,19.30
2019-02-28T09:39:19.417Z,19.40
2019-02-28T09:41:52.282Z,19.20
2019-02-28T09:44:24.316Z,19.80
2019-02-28T09:46:56.413Z,20.00
2019-02-28T09:49:28.628Z,19.50
2019-02-28T09:52:03.148Z,19.80
2019-02-28T09:54:34.424Z,19.60
2019-02-28T09:57:06.578Z,20.40
2019-02-28T09:59:38.744Z,20.70
2019-02-28T10:02:10.850Z,20.50
2019-02-28T10:04:42.947Z,20.60
2019-02-28T10:07:15.067Z,21.20
2019-02-28T10:09:49.248Z,21.50
2019-02-28T10:12:20.884Z,21.90
2019-02-28T10:14:52.909Z,22.20
2019-02-28T10:17:28.607Z,22.70
2019-02-28T10:19:58.966Z,23.00
2019-02-28T10:22:31.023Z,23.20
2019-02-28T10:25:03.548Z,23.00
2019-02-28T10:27:37.046Z,23.10
2019-02-28T10:30:15.529Z,23.20
2019-02-28T10:32:46.055Z,23.90
2019-02-28T10:35:18.591Z,24.00
2019-02-28T10:37:50.876Z,24.70
2019-02-28T10:40:24.780Z,25.00
2019-02-28T10:42:57.011Z,24.90
2019-02-28T10:45:29.356Z,25.30
2019-02-28T10:48:03.879Z,26.00
2019-02-28T10:50:35.424Z,25.80
2019-02-28T10:53:07.658Z,26.50
2019-02-28T10:55:39.960Z,27.00
2019-02-28T10:58:12.459Z,27.50
2019-02-28T11:00:46.310Z,28.10
2019-02-28T11:03:19.033Z,28.50
2019-02-28T11:05:54.236Z,28.50
2019-02-28T11:08:24.885Z,28.50
2019-02-28T11:10:56.986Z,27.80
2019-02-28T11:13:32.194Z,27.00
2019-02-28T11:16:02.915Z,26.40
2019-02-28T11:18:36.464Z,25.10
2019-02-28T11:21:09.072Z,24.20
2019-02-28T11:23:41.201Z,24.00
2019-02-28T11:26:13.311Z,23.30
2019-02-28T11:28:45.492Z,23.10
2019-02-28T11:31:19.209Z,22.70
2019-02-28T11:33:52.019Z,22.60
2019-02-28T11:36:24.421Z,22.40
2019-02-28T11:38:56.512Z,22.10
2019-02-28T11:41:28.709Z,22.30
2019-02-28T11:44:00.834Z,22.20
2019-02-28T11:46:35.752Z,21.90
2019-02-28T11:49:06.783Z,21.90
2019-02-28T11:51:38.887Z,21.40
2019-02-28T11:54:12.293Z,21.70
2019-02-28T11:56:44.902Z,21.80
2019-02-28T11:59:17.000Z,22.10
2019-02-28T12:01:49.097Z,22.30
2019-02-28T12:04:21.192Z,22.40
2019-02-28T12:06:53.317Z,22.90
2019-02-28T12:09:25.407Z,23.00
2019-02-28T12:11:57.431Z,23.20
2019-02-28T12:14:30.142Z,23.30
2019-02-28T12:17:02.266Z,23.60
2019-02-28T12:19:34.353Z,24.50
2019-02-28T12:22:09.127Z,24.60
2019-02-28T12:24:40.742Z,24.20
2019-02-28T12:27:12.828Z,24.20
2019-02-28T12:29:45.572Z,24.50
2019-02-28T12:32:18.586Z,24.10
2019-02-28T12:34:50.679Z,24.20
2019-02-28T12:37:23.130Z,24.00
2019-02-28T12:39:55.233Z,23.70
2019-02-28T12:42:27.257Z,24.20
2019-02-28T12:44:59.361Z,24.00
2019-02-28T12:47:34.488Z,23.90
2019-02-28T12:50:07.839Z,23.20
2019-02-28T12:52:39.883Z,22.80
2019-02-28T12:55:14.699Z,23.10
2019-02-28T12:57:46.993Z,23.20
2019-02-28T13:00:25.399Z,23.50
2019-02-28T13:02:57.494Z,24.50
2019-02-28T13:05:29.895Z,25.30
2019-02-28T13:08:02.098Z,25.10
2019-02-28T13:10:34.189Z,25.10
2019-02-28T13:13:07.778Z,25.10
2019-02-28T13:15:40.118Z,25.30
2019-02-28T13:18:12.345Z,25.20
2019-02-28T13:20:44.593Z,25.50
2019-02-28T13:23:17.231Z,25.20
2019-02-28T13:25:49.727Z,25.10
2019-02-28T13:28:23.577Z,25.80
2019-02-28T13:30:55.461Z,25.70
2019-02-28T13:33:27.670Z,25.90
2019-02-28T13:35:59.687Z,25.90
2019-02-28T13:38:31.771Z,26.10
2019-02-28T13:41:03.899Z,26.50
2019-02-28T13:43:36.101Z,27.70
2019-02-28T13:46:08.123Z,28.70
2019-02-28T13:48:40.220Z,29.60
2019-02-28T13:51:12.248Z,29.80
2019-02-28T13:53:44.362Z,29.80
2019-02-28T13:56:18.012Z,29.80
2019-02-28T13:58:53.819Z,30.40
2019-02-28T14:01:24.068Z,31.90
2019-02-28T14:03:56.167Z,33.40
2019-02-28T14:06:28.260Z,34.60
2019-02-28T14:09:00.363Z,35.90
2019-02-28T14:11:32.936Z,37.30
2019-02-28T14:14:06.255Z,38.00
2019-02-28T14:16:39.003Z,38.60
2019-02-28T14:19:11.127Z,39.30
2019-02-28T14:21:43.322Z,40.10
2019-02-28T14:24:15.424Z,41.20
2019-02-28T14:26:49.583Z,42.10
2019-02-28T14:29:21.349Z,42.30
2019-02-28T14:31:53.445Z,42.30
2019-02-28T14:34:26.963Z,41.30
2019-02-28T14:36:59.243Z,40.00
2019-02-28T14:39:31.277Z,38.50
2019-02-28T14:42:06.742Z,37.30
2019-02-28T14:44:38.034Z,36.40
2019-02-28T14:47:10.055Z,35.40
2019-02-28T14:49:43.840Z,35.40
2019-02-28T14:52:15.816Z,35.20
2019-02-28T14:54:47.908Z,35.60
2019-02-28T14:57:19.928Z,36.00
2019-02-28T14:59:52.071Z,36.50
2019-02-28T15:02:27.869Z,37.30
2019-02-28T15:04:57.912Z,38.20
2019-02-28T15:07:29.961Z,38.70
2019-02-28T15:10:02.732Z,39.30
2019-02-28T15:12:34.982Z,40.60
2019-02-28T15:15:10.126Z,40.60
2019-02-28T15:17:42.238Z,40.80
2019-02-28T15:20:14.698Z,41.80
2019-02-28T15:22:46.895Z,42.30
2019-02-28T15:25:19.960Z,42.60
2019-02-28T15:27:52.206Z,43.40
2019-02-28T15:30:30.527Z,43.40
2019-02-28T15:33:01.617Z,43.70
2019-02-28T15:35:33.723Z,44.30
2019-02-28T15:38:09.119Z,44.90
2019-02-28T15:40:40.653Z,45.20
2019-02-28T15:43:17.110Z,45.70
2019-02-28T15:45:46.649Z,45.10
2019-02-28T15:48:18.755Z,43.10
2019-02-28T15:50:51.803Z,41.80
2019-02-28T15:53:24.787Z,40.70
2019-02-28T15:55:56.987Z,39.90
2019-02-28T15:58:29.126Z,39.40
2019-02-28T16:01:01.230Z,39.40
2019-02-28T16:03:33.325Z,39.60
2019-02-28T16:06:05.455Z,40.90
2019-02-28T16:08:37.487Z,41.70
2019-02-28T16:11:09.689Z,42.40
2019-02-28T16:13:41.709Z,43.70
2019-02-28T16:16:13.860Z,45.60
2019-02-28T16:18:47.328Z,47.60
2019-02-28T16:21:19.978Z,49.40
2019-02-28T16:23:52.112Z,50.90
2019-02-28T16:26:24.224Z,51.90
2019-02-28T16:28:56.312Z,52.90
2019-02-28T16:31:28.507Z,54.10
2019-02-28T16:34:08.230Z,54.80
2019-02-28T16:36:34.322Z,55.90
2019-02-28T16:39:08.529Z,56.60
2019-02-28T16:41:40.624Z,57.00
2019-02-28T16:44:12.641Z,57.60
2019-02-28T16:46:46.419Z,58.40
2019-02-28T16:49:18.388Z,58.80
2019-02-28T16:51:50.504Z,59.10
2019-02-28T16:54:23.387Z,60.00
2019-02-28T16:56:56.219Z,60.70
2019-02-28T16:59:31.386Z,61.20
2019-02-28T17:02:02.077Z,61.80
2019-02-28T17:04:34.178Z,62.30
2019-02-28T17:07:09.188Z,62.70
2019-02-28T17:09:44.102Z,62.80
2019-02-28T17:12:37.937Z,63.80
2019-02-28T17:15:19.666Z,63.70
2019-02-28T17:17:57.297Z,63.90
2019-02-28T17:20:29.296Z,64.20
2019-02-28T17:23:02.157Z,64.70
2019-02-28T17:25:34.215Z,65.10
2019-02-28T17:28:25.141Z,65.20
2019-02-28T17:31:14.367Z,65.80
2019-02-28T17:33:48.015Z,65.90
2019-02-28T17:36:20.631Z,66.40
2019-02-28T17:38:52.883Z,66.40
2019-02-28T17:41:24.890Z,66.70
2019-02-28T17:45:03.976Z,67.10
2019-02-28T17:48:30.297Z,67.60
2019-02-28T17:51:43.132Z,67.70
2019-02-28T17:55:09.306Z,68.60
2019-02-28T17:58:14.853Z,68.40
2019-02-28T18:01:39.432Z,68.80
2019-02-28T18:05:00.327Z,69.10
2019-02-28T18:08:19.768Z,69.40
2019-02-28T18:12:10.776Z,69.80
2019-02-28T18:15:26.478Z,70.10
2019-02-28T18:19:01.658Z,70.20
2019-02-28T18:22:22.857Z,70.40
2019-02-28T18:25:48.696Z,70.60
2019-02-28T18:29:18.976Z,70.90
2019-02-28T18:31:53.870Z,71.40
2019-02-28T18:34:28.364Z,71.70
2019-02-28T18:37:00.592Z,71.80
2019-02-28T18:39:32.763Z,71.80
2019-02-28T18:42:04.863Z,71.90
2019-02-28T18:44:37.494Z,72.00
2019-02-28T18:47:10.668Z,72.00
2019-02-28T18:49:42.706Z,72.10
2019-02-28T18:52:14.782Z,72.10
2019-02-28T18:54:46.811Z,72.50
2019-02-28T18:57:18.873Z,72.30
2019-02-28T18:59:50.980Z,72.70
2019-02-28T19:02:23.047Z,72.70
2019-02-28T19:04:55.075Z,73.00
2019-02-28T19:07:27.152Z,73.10
2019-02-28T19:10:00.468Z,73.60
2019-02-28T19:12:32.501Z,73.70
2019-02-28T19:15:12.192Z,74.00
2019-02-28T19:17:44.341Z,73.90
2019-02-28T19:20:16.398Z,74.00
2019-02-28T19:22:48.487Z,73.90
2019-02-28T19:25:20.610Z,73.80
2019-02-28T19:27:52.721Z,73.80
2019-02-28T19:30:24.842Z,73.20
2019-02-28T19:32:57.716Z,73.40
2019-02-28T19:35:29.784Z,73.00
2019-02-28T19:38:01.870Z,72.50
2019-02-28T19:40:33.968Z,72.00
2019-02-28T19:43:06.061Z,71.40
2019-02-28T19:45:39.066Z,70.90
2019-02-28T19:48:11.131Z,70.90
2019-02-28T19:50:43.236Z,71.20
2019-02-28T19:53:15.253Z,71.30
2019-02-28T19:55:47.506Z,71.20
2019-02-28T19:58:19.573Z,71.40
2019-02-28T20:00:52.085Z,72.10
2019-02-28T20:03:24.192Z,72.60
2019-02-28T20:05:56.309Z,72.90
2019-02-28T20:08:28.400Z,73.20
2019-02-28T20:11:00.608Z,73.60
2019-02-28T20:13:32.630Z,74.00
2019-02-28T20:16:04.976Z,74.40
2019-02-28T20:18:37.216Z,75.00
2019-02-28T20:21:09.666Z,75.30
2019-02-28T20:23:41.758Z,75.60
2019-02-28T20:26:13.790Z,75.80
2019-02-28T20:28:45.808Z,76.00
2019-02-28T20:31:18.028Z,76.20
2019-02-28T20:33:50.045Z,76.30
2019-02-28T20:36:22.077Z,76.40
2019-02-28T20:38:54.344Z,76.50
2019-02-28T20:41:26.424Z,76.70
2019-02-28T20:43:58.516Z,76.70
2019-02-28T20:46:30.587Z,76.90
2019-02-28T20:49:02.622Z,76.90
2019-02-28T20:51:34.657Z,77.20
2019-02-28T20:54:07.101Z,77.30
2019-02-28T20:56:39.201Z,77.60
2019-02-28T20:59:11.219Z,77.50
2019-02-28T21:01:43.257Z,78.00
2019-02-28T21:04:15.350Z,77.90
2019-02-28T21:06:47.459Z,77.80
2019-02-28T21:09:20.062Z,77.90
2019-02-28T21:11:52.172Z,78.10
2019-02-28T21:14:24.267Z,78.10
2019-02-28T21:16:56.332Z,78.00
2019-02-28T21:19:28.429Z,78.40
2019-02-28T21:22:02.559Z,78.50
2019-02-28T21:24:34.576Z,78.50
2019-02-28T21:27:06.780Z,78.60
2019-02-28T21:29:38.872Z,78.40
2019-02-28T21:32:10.887Z,78.60
2019-02-28T21:34:42.962Z,78.70
2019-02-28T21:37:15.015Z,78.50
2019-02-28T21:39:47.311Z,78.50
2019-02-28T21:42:19.403Z,78.60
2019-02-28T21:44:51.623Z,78.50
2019-02-28T21:47:24.349Z,78.50
2019-02-28T21:49:56.455Z,78.60
2019-02-28T21:52:28.498Z,78.80
2019-02-28T21:55:00.603Z,78.70
2019-02-28T21:57:32.690Z,78.90
2019-02-28T22:00:05.976Z,79.00
2019-02-28T22:02:38.093Z,79.20
2019-02-28T22:05:12.480Z,79.30
2019-02-28T22:07:44.727Z,79.30
2019-02-28T22:10:17.321Z,79.50
2019-02-28T22:12:49.420Z,79.70
2019-02-28T22:15:21.803Z,80.00
2019-02-28T22:17:53.896Z,80.00
2019-02-28T22:20:26.105Z,80.10
2019-02-28T22:22:58.221Z,80.20
2019-02-28T22:25:30.307Z,80.20
2019-02-28T22:28:02.402Z,80.10
2019-02-28T22:30:56.265Z,80.10
2019-02-28T22:33:55.998Z,80.10
2019-02-28T22:36:31.510Z,80.00
2019-02-28T22:39:04.126Z,80.20
2019-02-28T22:41:36.112Z,80.20
2019-02-28T22:44:09.448Z,80.20
2019-02-28T22:46:41.431Z,80.10
2019-02-28T22:49:13.527Z,80.20
2019-02-28T22:51:45.514Z,80.30
2019-02-28T22:54:17.484Z,81.50
2019-02-28T22:56:49.376Z,81.80
2019-02-28T22:59:21.308Z,81.90
2019-02-28T23:01:54.275Z,82.00
2019-02-28T23:04:26.582Z,82.20
2019-02-28T23:06:58.475Z,82.40
2019-02-28T23:09:30.403Z,82.40
2019-02-28T23:12:02.411Z,82.60
2019-02-28T23:14:34.419Z,83.30
2019-02-28T23:17:06.406Z,83.80
2019-02-28T23:19:38.351Z,84.20
2019-02-28T23:22:10.251Z,84.50
2019-02-28T23:24:42.178Z,85.00
2019-02-28T23:27:20.710Z,85.20
2019-02-28T23:30:35.636Z,85.30
2019-02-28T23:33:18.330Z,85.10
2019-02-28T23:35:51.270Z,85.70
2019-02-28T23:38:23.163Z,85.70
2019-02-28T23:40:58.166Z,86.00
2019-02-28T23:43:30.066Z,86.30
2019-02-28T23:46:02.115Z,86.40
2019-02-28T23:48:34.075Z,86.40
2019-02-28T23:51:06.104Z,86.40
2019-02-28T23:53:38.116Z,86.70
2019-02-28T23:56:10.117Z,86.60
2019-02-28T23:58:42.160Z,85.50
